sensor_id;sensor_type;location;lat;lon;timestamp;noise_LAeq;noise_LA_min;noise_LA_max;noise_LA01;noise_LA95
66747;Laerm;53658;50.742;10.864;2024-03-08T00:00:01;50.07;48.96;51.05;;
66747;Laerm;53658;50.742;10.864;2024-03-08T00:02:38;49.90;48.66;50.98;;
66747;Laerm;53658;50.742;10.864;2024-03-08T00:05:06;49.54;48.39;50.53;;
66747;Laerm;53658;50.742;10.864;2024-03-08T00:07:32;49.49;48.46;50.64;;
66747;Laerm;53658;50.742;10.864;2024-03-08T00:09:58;49.67;48.32;50.66;;
66747;Laerm;53658;50.742;10.864;2024-03-08T00:12:24;49.96;48.80;50.98;;
66747;Laerm;53658;50.742;10.864;2024-03-08T00:14:53;49.84;48.21;51.02;;
66747;Laerm;53658;50.742;10.864;2024-03-08T00:17:21;49.89;48.70;50.93;;
66747;Laerm;53658;50.742;10.864;2024-03-08T00:19:49;49.98;48.71;51.07;;
66747;Laerm;53658;50.742;10.864;2024-03-08T00:22:16;50.23;49.04;51.28;;
66747;Laerm;53658;50.742;10.864;2024-03-08T00:24:42;51.06;49.36;52.17;;
66747;Laerm;53658;50.742;10.864;2024-03-08T00:27:09;51.41;50.22;52.39;;
66747;Laerm;53658;50.742;10.864;2024-03-08T00:29:35;51.49;50.44;52.35;;
66747;Laerm;53658;50.742;10.864;2024-03-08T00:32:01;51.59;50.55;52.53;;
66747;Laerm;53658;50.742;10.864;2024-03-08T00:34:27;51.65;50.57;52.62;;
66747;Laerm;53658;50.742;10.864;2024-03-08T00:36:53;51.77;50.35;52.60;;
66747;Laerm;53658;50.742;10.864;2024-03-08T00:39:19;51.91;50.79;52.89;;
66747;Laerm;53658;50.742;10.864;2024-03-08T00:41:47;51.95;50.98;52.77;;
66747;Laerm;53658;50.742;10.864;2024-03-08T00:44:13;52.03;50.80;52.88;;
66747;Laerm;53658;50.742;10.864;2024-03-08T00:46:39;51.82;50.91;52.94;;
66747;Laerm;53658;50.742;10.864;2024-03-08T00:49:04;51.85;50.53;52.81;;
66747;Laerm;53658;50.742;10.864;2024-03-08T00:51:32;51.99;51.03;52.81;;
66747;Laerm;53658;50.742;10.864;2024-03-08T00:53:58;52.07;50.84;52.88;;
66747;Laerm;53658;50.742;10.864;2024-03-08T00:56:24;52.28;51.31;53.24;;
66747;Laerm;53658;50.742;10.864;2024-03-08T00:58:50;52.41;51.30;53.36;;
66747;Laerm;53658;50.742;10.864;2024-03-08T01:01:18;52.51;51.16;53.62;;
66747;Laerm;53658;50.742;10.864;2024-03-08T01:03:44;52.42;51.32;53.28;;
66747;Laerm;53658;50.742;10.864;2024-03-08T01:06:10;52.40;51.22;53.22;;
66747;Laerm;53658;50.742;10.864;2024-03-08T01:08:37;52.47;51.47;53.43;;
66747;Laerm;53658;50.742;10.864;2024-03-08T01:11:08;52.63;51.48;53.45;;
66747;Laerm;53658;50.742;10.864;2024-03-08T01:13:35;52.77;51.82;53.67;;
66747;Laerm;53658;50.742;10.864;2024-03-08T01:16:01;52.75;51.46;53.71;;
66747;Laerm;53658;50.742;10.864;2024-03-08T01:18:27;52.78;51.76;53.68;;
66747;Laerm;53658;50.742;10.864;2024-03-08T01:20:53;52.88;51.80;53.77;;
66747;Laerm;53658;50.742;10.864;2024-03-08T01:23:19;53.01;51.64;53.90;;
66747;Laerm;53658;50.742;10.864;2024-03-08T01:25:45;52.98;51.92;53.96;;
66747;Laerm;53658;50.742;10.864;2024-03-08T01:28:11;52.90;51.94;53.85;;
66747;Laerm;53658;50.742;10.864;2024-03-08T01:30:38;52.96;51.97;53.91;;
66747;Laerm;53658;50.742;10.864;2024-03-08T01:33:04;52.92;51.93;53.91;;
66747;Laerm;53658;50.742;10.864;2024-03-08T01:35:30;52.84;51.87;53.82;;
66747;Laerm;53658;50.742;10.864;2024-03-08T01:37:56;52.90;51.87;53.75;;
66747;Laerm;53658;50.742;10.864;2024-03-08T01:40:22;52.93;52.01;53.82;;
66747;Laerm;53658;50.742;10.864;2024-03-08T01:42:48;52.91;51.84;53.88;;
66747;Laerm;53658;50.742;10.864;2024-03-08T01:45:14;53.01;52.09;53.86;;
66747;Laerm;53658;50.742;10.864;2024-03-08T01:47:40;53.06;52.08;53.94;;
66747;Laerm;53658;50.742;10.864;2024-03-08T01:50:07;53.06;52.00;53.92;;
66747;Laerm;53658;50.742;10.864;2024-03-08T01:52:34;53.24;52.21;54.18;;
66747;Laerm;53658;50.742;10.864;2024-03-08T01:55:03;53.32;52.30;54.14;;
66747;Laerm;53658;50.742;10.864;2024-03-08T01:57:33;53.26;52.29;54.20;;
66747;Laerm;53658;50.742;10.864;2024-03-08T02:00:01;53.31;52.34;54.38;;
66747;Laerm;53658;50.742;10.864;2024-03-08T02:02:33;53.32;52.29;54.21;;
66747;Laerm;53658;50.742;10.864;2024-03-08T02:05:00;53.33;52.28;54.40;;
66747;Laerm;53658;50.742;10.864;2024-03-08T02:07:26;53.36;52.39;54.23;;
66747;Laerm;53658;50.742;10.864;2024-03-08T02:09:52;53.41;52.13;54.31;;
66747;Laerm;53658;50.742;10.864;2024-03-08T02:12:20;53.54;52.26;54.36;;
66747;Laerm;53658;50.742;10.864;2024-03-08T02:14:49;53.41;52.36;54.31;;
66747;Laerm;53658;50.742;10.864;2024-03-08T02:17:14;53.43;52.41;54.28;;
66747;Laerm;53658;50.742;10.864;2024-03-08T02:19:40;53.49;52.43;54.34;;
66747;Laerm;53658;50.742;10.864;2024-03-08T02:22:06;53.61;52.58;54.74;;
66747;Laerm;53658;50.742;10.864;2024-03-08T02:24:32;53.68;52.40;54.67;;
66747;Laerm;53658;50.742;10.864;2024-03-08T02:26:59;53.69;52.70;54.60;;
66747;Laerm;53658;50.742;10.864;2024-03-08T02:29:25;53.71;52.68;54.64;;
66747;Laerm;53658;50.742;10.864;2024-03-08T02:31:51;53.78;52.86;54.63;;
66747;Laerm;53658;50.742;10.864;2024-03-08T02:34:17;53.79;52.74;54.67;;
66747;Laerm;53658;50.742;10.864;2024-03-08T02:36:43;53.79;52.59;54.73;;
66747;Laerm;53658;50.742;10.864;2024-03-08T02:39:09;53.83;52.63;54.71;;
66747;Laerm;53658;50.742;10.864;2024-03-08T02:41:36;53.89;52.88;54.78;;
66747;Laerm;53658;50.742;10.864;2024-03-08T02:44:02;53.87;52.61;54.78;;
66747;Laerm;53658;50.742;10.864;2024-03-08T02:46:29;53.87;52.93;54.82;;
66747;Laerm;53658;50.742;10.864;2024-03-08T02:48:56;53.96;52.97;54.80;;
66747;Laerm;53658;50.742;10.864;2024-03-08T02:51:22;53.99;52.82;54.82;;
66747;Laerm;53658;50.742;10.864;2024-03-08T02:53:47;54.04;52.89;55.12;;
66747;Laerm;53658;50.742;10.864;2024-03-08T02:56:15;53.94;52.65;54.78;;
66747;Laerm;53658;50.742;10.864;2024-03-08T02:58:42;53.87;52.92;54.75;;
66747;Laerm;53658;50.742;10.864;2024-03-08T03:01:09;53.89;52.91;54.77;;
66747;Laerm;53658;50.742;10.864;2024-03-08T03:03:36;53.98;52.87;54.87;;
66747;Laerm;53658;50.742;10.864;2024-03-08T03:06:02;54.06;53.02;54.93;;
66747;Laerm;53658;50.742;10.864;2024-03-08T03:08:28;54.11;53.14;55.18;;
66747;Laerm;53658;50.742;10.864;2024-03-08T03:10:54;54.23;53.22;55.15;;
66747;Laerm;53658;50.742;10.864;2024-03-08T03:13:22;54.24;52.94;55.07;;
66747;Laerm;53658;50.742;10.864;2024-03-08T03:15:49;54.19;53.19;55.01;;
66747;Laerm;53658;50.742;10.864;2024-03-08T03:18:14;54.26;53.23;55.10;;
66747;Laerm;53658;50.742;10.864;2024-03-08T03:20:41;54.27;53.28;55.23;;
66747;Laerm;53658;50.742;10.864;2024-03-08T03:23:09;54.27;53.29;55.12;;
66747;Laerm;53658;50.742;10.864;2024-03-08T03:25:35;54.32;53.25;55.13;;
66747;Laerm;53658;50.742;10.864;2024-03-08T03:28:02;54.30;53.07;55.23;;
66747;Laerm;53658;50.742;10.864;2024-03-08T03:30:28;54.33;53.37;55.24;;
66747;Laerm;53658;50.742;10.864;2024-03-08T03:33:02;54.38;53.26;55.29;;
66747;Laerm;53658;50.742;10.864;2024-03-08T03:35:32;54.37;53.40;55.26;;
66747;Laerm;53658;50.742;10.864;2024-03-08T03:37:59;54.37;53.37;55.25;;
66747;Laerm;53658;50.742;10.864;2024-03-08T03:40:33;54.36;53.32;55.20;;
66747;Laerm;53658;50.742;10.864;2024-03-08T03:43:00;54.39;53.39;55.27;;
66747;Laerm;53658;50.742;10.864;2024-03-08T03:45:27;54.37;53.34;55.29;;
66747;Laerm;53658;50.742;10.864;2024-03-08T03:47:52;54.37;53.42;55.32;;
66747;Laerm;53658;50.742;10.864;2024-03-08T03:50:19;54.39;53.42;55.30;;
66747;Laerm;53658;50.742;10.864;2024-03-08T03:52:46;54.38;53.45;55.28;;
66747;Laerm;53658;50.742;10.864;2024-03-08T03:55:12;54.40;53.43;55.29;;
66747;Laerm;53658;50.742;10.864;2024-03-08T03:57:39;54.39;53.26;55.26;;
66747;Laerm;53658;50.742;10.864;2024-03-08T04:00:06;54.39;53.44;55.29;;
66747;Laerm;53658;50.742;10.864;2024-03-08T04:02:41;54.37;53.36;55.20;;
66747;Laerm;53658;50.742;10.864;2024-03-08T04:05:09;54.39;53.49;55.28;;
66747;Laerm;53658;50.742;10.864;2024-03-08T04:07:35;54.39;53.41;55.26;;
66747;Laerm;53658;50.742;10.864;2024-03-08T04:10:02;54.37;53.49;55.30;;
66747;Laerm;53658;50.742;10.864;2024-03-08T04:12:29;54.38;53.49;55.22;;
66747;Laerm;53658;50.742;10.864;2024-03-08T04:14:55;54.36;53.35;55.17;;
66747;Laerm;53658;50.742;10.864;2024-03-08T04:17:22;54.38;53.44;55.48;;
66747;Laerm;53658;50.742;10.864;2024-03-08T04:19:49;54.39;53.44;55.30;;
66747;Laerm;53658;50.742;10.864;2024-03-08T04:22:15;54.32;53.19;55.29;;
66747;Laerm;53658;50.742;10.864;2024-03-08T04:24:44;54.31;53.37;55.17;;
66747;Laerm;53658;50.742;10.864;2024-03-08T04:27:10;54.36;53.43;55.37;;
66747;Laerm;53658;50.742;10.864;2024-03-08T04:29:36;54.32;53.35;55.24;;
66747;Laerm;53658;50.742;10.864;2024-03-08T04:32:03;54.25;53.06;55.13;;
66747;Laerm;53658;50.742;10.864;2024-03-08T04:34:33;54.23;53.10;55.08;;
66747;Laerm;53658;50.742;10.864;2024-03-08T04:37:00;54.25;53.27;55.14;;
66747;Laerm;53658;50.742;10.864;2024-03-08T04:39:27;54.18;53.21;55.00;;
66747;Laerm;53658;50.742;10.864;2024-03-08T04:42:01;54.13;53.16;55.09;;
66747;Laerm;53658;50.742;10.864;2024-03-08T04:44:30;54.13;53.14;55.07;;
66747;Laerm;53658;50.742;10.864;2024-03-08T04:46:56;54.00;52.98;55.02;;
66747;Laerm;53658;50.742;10.864;2024-03-08T04:49:21;54.03;52.93;55.11;;
66747;Laerm;53658;50.742;10.864;2024-03-08T04:51:48;54.05;53.11;55.04;;
66747;Laerm;53658;50.742;10.864;2024-03-08T04:54:14;53.96;52.83;54.83;;
66747;Laerm;53658;50.742;10.864;2024-03-08T04:56:40;53.96;52.92;54.90;;
66747;Laerm;53658;50.742;10.864;2024-03-08T04:59:05;53.94;52.96;54.84;;
66747;Laerm;53658;50.742;10.864;2024-03-08T05:01:34;54.05;53.11;54.94;;
66747;Laerm;53658;50.742;10.864;2024-03-08T05:04:04;53.94;53.06;54.83;;
66747;Laerm;53658;50.742;10.864;2024-03-08T05:06:30;53.78;52.76;54.64;;
66747;Laerm;53658;50.742;10.864;2024-03-08T05:08:56;53.70;52.72;54.57;;
66747;Laerm;53658;50.742;10.864;2024-03-08T05:11:22;53.68;52.63;54.56;;
66747;Laerm;53658;50.742;10.864;2024-03-08T05:13:47;53.74;52.74;54.71;;
66747;Laerm;53658;50.742;10.864;2024-03-08T05:16:14;53.64;52.49;54.67;;
66747;Laerm;53658;50.742;10.864;2024-03-08T05:18:41;53.57;52.62;54.50;;
66747;Laerm;53658;50.742;10.864;2024-03-08T05:21:07;53.57;52.62;54.55;;
66747;Laerm;53658;50.742;10.864;2024-03-08T05:23:35;53.44;52.41;54.35;;
66747;Laerm;53658;50.742;10.864;2024-03-08T05:26:01;53.31;52.28;54.25;;
66747;Laerm;53658;50.742;10.864;2024-03-08T05:28:27;53.40;52.39;54.29;;
66747;Laerm;53658;50.742;10.864;2024-03-08T05:30:52;53.41;52.08;54.27;;
66747;Laerm;53658;50.742;10.864;2024-03-08T05:33:18;53.33;52.33;54.25;;
66747;Laerm;53658;50.742;10.864;2024-03-08T05:35:45;53.35;52.31;54.37;;
66747;Laerm;53658;50.742;10.864;2024-03-08T05:38:11;53.30;52.37;54.28;;
66747;Laerm;53658;50.742;10.864;2024-03-08T05:40:38;53.22;52.11;54.21;;
66747;Laerm;53658;50.742;10.864;2024-03-08T05:43:04;53.11;52.15;54.09;;
66747;Laerm;53658;50.742;10.864;2024-03-08T05:45:31;53.08;52.13;54.01;;
66747;Laerm;53658;50.742;10.864;2024-03-08T05:47:56;53.15;51.91;54.13;;
66747;Laerm;53658;50.742;10.864;2024-03-08T05:50:22;53.09;51.92;54.04;;
66747;Laerm;53658;50.742;10.864;2024-03-08T05:52:48;53.04;52.05;53.99;;
66747;Laerm;53658;50.742;10.864;2024-03-08T05:55:15;53.08;52.09;54.01;;
66747;Laerm;53658;50.742;10.864;2024-03-08T05:57:41;53.15;52.16;54.08;;
66747;Laerm;53658;50.742;10.864;2024-03-08T06:00:09;53.21;52.10;54.14;;
66747;Laerm;53658;50.742;10.864;2024-03-08T06:02:39;53.26;52.34;54.17;;
66747;Laerm;53658;50.742;10.864;2024-03-08T06:05:10;53.32;52.33;54.14;;
66747;Laerm;53658;50.742;10.864;2024-03-08T06:07:37;53.31;52.22;54.40;;
66747;Laerm;53658;50.742;10.864;2024-03-08T06:10:10;53.37;52.24;54.19;;
66747;Laerm;53658;50.742;10.864;2024-03-08T06:12:36;53.63;52.67;54.61;;
66747;Laerm;53658;50.742;10.864;2024-03-08T06:15:09;53.77;52.74;54.67;;
66747;Laerm;53658;50.742;10.864;2024-03-08T06:17:36;53.80;52.78;54.63;;
66747;Laerm;53658;50.742;10.864;2024-03-08T06:20:03;53.93;52.91;54.90;;
66747;Laerm;53658;50.742;10.864;2024-03-08T06:22:33;54.03;53.13;54.91;;
66747;Laerm;53658;50.742;10.864;2024-03-08T06:24:59;54.13;53.07;55.01;;
66747;Laerm;53658;50.742;10.864;2024-03-08T06:27:25;54.18;53.21;55.18;;
66747;Laerm;53658;50.742;10.864;2024-03-08T06:29:51;54.24;53.15;55.18;;
66747;Laerm;53658;50.742;10.864;2024-03-08T06:32:17;54.32;53.29;55.25;;
66747;Laerm;53658;50.742;10.864;2024-03-08T06:34:42;54.36;53.41;55.32;;
66747;Laerm;53658;50.742;10.864;2024-03-08T06:37:08;54.40;53.24;55.36;;
66747;Laerm;53658;50.742;10.864;2024-03-08T06:39:34;54.41;53.14;55.44;;
66747;Laerm;53658;50.742;10.864;2024-03-08T06:42:01;54.40;53.42;55.26;;
66747;Laerm;53658;50.742;10.864;2024-03-08T06:44:27;54.35;52.81;55.19;;
66747;Laerm;53658;50.742;10.864;2024-03-08T06:46:53;54.32;53.23;55.24;;
66747;Laerm;53658;50.742;10.864;2024-03-08T06:49:19;54.28;53.33;55.12;;
66747;Laerm;53658;50.742;10.864;2024-03-08T06:51:45;54.18;53.22;55.14;;
66747;Laerm;53658;50.742;10.864;2024-03-08T06:54:11;54.08;53.07;55.07;;
66747;Laerm;53658;50.742;10.864;2024-03-08T06:56:36;53.98;53.03;54.87;;
66747;Laerm;53658;50.742;10.864;2024-03-08T06:59:02;53.91;53.00;54.74;;
66747;Laerm;53658;50.742;10.864;2024-03-08T07:01:29;53.79;52.61;54.86;;
66747;Laerm;53658;50.742;10.864;2024-03-08T07:04:00;53.70;52.67;54.59;;
66747;Laerm;53658;50.742;10.864;2024-03-08T07:06:33;53.54;52.29;54.45;;
66747;Laerm;53658;50.742;10.864;2024-03-08T07:08:59;53.40;52.50;54.51;;
66747;Laerm;53658;50.742;10.864;2024-03-08T07:11:25;53.29;52.21;54.14;;
66747;Laerm;53658;50.742;10.864;2024-03-08T07:13:51;53.13;52.17;54.32;;
66747;Laerm;53658;50.742;10.864;2024-03-08T07:16:17;53.00;51.99;53.88;;
66747;Laerm;53658;50.742;10.864;2024-03-08T07:18:43;52.85;51.92;53.80;;
66747;Laerm;53658;50.742;10.864;2024-03-08T07:21:10;52.65;51.59;53.51;;
66747;Laerm;53658;50.742;10.864;2024-03-08T07:23:38;52.46;51.25;53.47;;
66747;Laerm;53658;50.742;10.864;2024-03-08T07:26:28;52.27;51.04;53.31;;
66747;Laerm;53658;50.742;10.864;2024-03-08T07:28:54;52.10;51.04;53.08;;
66747;Laerm;53658;50.742;10.864;2024-03-08T07:31:20;51.81;50.77;52.75;;
66747;Laerm;53658;50.742;10.864;2024-03-08T07:34:00;51.52;50.42;52.44;;
66747;Laerm;53658;50.742;10.864;2024-03-08T07:36:26;51.23;50.04;52.18;;
66747;Laerm;53658;50.742;10.864;2024-03-08T07:38:52;50.56;48.76;51.81;;
66747;Laerm;53658;50.742;10.864;2024-03-08T07:41:18;48.90;46.40;56.31;;
66747;Laerm;53658;50.742;10.864;2024-03-08T07:43:43;46.34;43.44;48.39;;
66747;Laerm;53658;50.742;10.864;2024-03-08T07:46:09;42.82;40.80;45.48;;
66747;Laerm;53658;50.742;10.864;2024-03-08T07:48:36;40.62;37.70;43.04;;
66747;Laerm;53658;50.742;10.864;2024-03-08T07:51:05;38.76;35.59;41.22;;
66747;Laerm;53658;50.742;10.864;2024-03-08T07:53:31;38.46;35.36;49.12;;
66747;Laerm;53658;50.742;10.864;2024-03-08T07:55:57;38.44;35.36;41.53;;
66747;Laerm;53658;50.742;10.864;2024-03-08T07:58:23;38.40;34.31;45.11;;
66747;Laerm;53658;50.742;10.864;2024-03-08T08:00:49;39.66;33.90;65.31;;
66747;Laerm;53658;50.742;10.864;2024-03-08T08:03:15;46.67;34.69;82.18;;
66747;Laerm;53658;50.742;10.864;2024-03-08T08:05:41;42.04;35.66;74.30;;
66747;Laerm;53658;50.742;10.864;2024-03-08T08:08:08;38.54;34.69;40.98;;
66747;Laerm;53658;50.742;10.864;2024-03-08T08:10:36;38.45;35.04;40.89;;
66747;Laerm;53658;50.742;10.864;2024-03-08T08:13:03;38.43;34.31;40.71;;
66747;Laerm;53658;50.742;10.864;2024-03-08T08:15:30;38.39;34.69;40.45;;
66747;Laerm;53658;50.742;10.864;2024-03-08T08:17:56;38.33;34.69;40.62;;
66747;Laerm;53658;50.742;10.864;2024-03-08T08:20:22;39.27;36.69;41.46;;
66747;Laerm;53658;50.742;10.864;2024-03-08T08:22:49;40.27;38.52;41.96;;
66747;Laerm;53658;50.742;10.864;2024-03-08T08:25:14;40.57;38.95;42.09;;
66747;Laerm;53658;50.742;10.864;2024-03-08T08:27:41;40.95;39.21;42.29;;
66747;Laerm;53658;50.742;10.864;2024-03-08T08:30:08;41.12;39.46;42.41;;
66747;Laerm;53658;50.742;10.864;2024-03-08T08:32:35;41.11;39.08;42.65;;
66747;Laerm;53658;50.742;10.864;2024-03-08T08:35:12;41.08;39.08;42.59;;
66747;Laerm;53658;50.742;10.864;2024-03-08T08:37:39;40.97;39.21;42.65;;
66747;Laerm;53658;50.742;10.864;2024-03-08T08:40:06;40.82;38.52;42.35;;
66747;Laerm;53658;50.742;10.864;2024-03-08T08:42:36;40.66;38.37;43.29;;
66747;Laerm;53658;50.742;10.864;2024-03-08T08:45:04;40.40;37.88;42.09;;
66747;Laerm;53658;50.742;10.864;2024-03-08T08:47:34;40.20;37.52;42.22;;
66747;Laerm;53658;50.742;10.864;2024-03-08T08:50:00;40.09;37.12;41.89;;
66747;Laerm;53658;50.742;10.864;2024-03-08T08:52:26;40.03;37.32;41.89;;
66747;Laerm;53658;50.742;10.864;2024-03-08T08:54:52;39.92;37.32;46.23;;
66747;Laerm;53658;50.742;10.864;2024-03-08T08:57:18;39.86;35.94;41.89;;
66747;Laerm;53658;50.742;10.864;2024-03-08T08:59:44;39.93;37.12;41.68;;
66747;Laerm;53658;50.742;10.864;2024-03-08T09:02:11;39.78;37.12;42.35;;
66747;Laerm;53658;50.742;10.864;2024-03-08T09:04:37;39.72;36.69;41.96;;
66747;Laerm;53658;50.742;10.864;2024-03-08T09:07:03;39.58;36.69;41.61;;
66747;Laerm;53658;50.742;10.864;2024-03-08T09:09:32;39.53;36.20;42.09;;
66747;Laerm;53658;50.742;10.864;2024-03-08T09:11:58;39.42;36.20;41.82;;
66747;Laerm;53658;50.742;10.864;2024-03-08T09:14:24;40.18;35.66;68.65;;
66747;Laerm;53658;50.742;10.864;2024-03-08T09:16:52;39.39;36.20;41.30;;
66747;Laerm;53658;50.742;10.864;2024-03-08T09:19:18;39.26;35.36;41.61;;
66747;Laerm;53658;50.742;10.864;2024-03-08T09:21:45;39.19;35.94;41.75;;
66747;Laerm;53658;50.742;10.864;2024-03-08T09:24:11;39.15;35.66;41.75;;
66747;Laerm;53658;50.742;10.864;2024-03-08T09:26:38;39.12;35.36;41.46;;
66747;Laerm;53658;50.742;10.864;2024-03-08T09:29:06;39.08;35.66;41.89;;
66747;Laerm;53658;50.742;10.864;2024-03-08T09:31:35;38.99;34.31;41.14;;
66747;Laerm;53658;50.742;10.864;2024-03-08T09:34:03;39.10;34.69;46.30;;
66747;Laerm;53658;50.742;10.864;2024-03-08T09:36:29;38.85;34.69;45.57;;
66747;Laerm;53658;50.742;10.864;2024-03-08T09:38:58;38.90;35.36;41.30;;
66747;Laerm;53658;50.742;10.864;2024-03-08T09:41:23;38.84;35.04;41.30;;
66747;Laerm;53658;50.742;10.864;2024-03-08T09:43:49;38.87;35.36;41.30;;
66747;Laerm;53658;50.742;10.864;2024-03-08T09:46:18;38.84;35.36;41.75;;
66747;Laerm;53658;50.742;10.864;2024-03-08T09:48:45;38.93;34.69;43.68;;
66747;Laerm;53658;50.742;10.864;2024-03-08T09:51:12;38.84;35.04;42.35;;
66747;Laerm;53658;50.742;10.864;2024-03-08T09:53:41;38.76;34.31;44.11;;
66747;Laerm;53658;50.742;10.864;2024-03-08T09:56:10;38.80;35.36;41.30;;
66747;Laerm;53658;50.742;10.864;2024-03-08T09:58:37;38.88;35.04;43.54;;
66747;Laerm;53658;50.742;10.864;2024-03-08T10:01:19;38.88;35.36;43.09;;
66747;Laerm;53658;50.742;10.864;2024-03-08T10:03:46;38.97;35.04;42.76;;
66747;Laerm;53658;50.742;10.864;2024-03-08T10:06:13;38.75;34.69;41.14;;
66747;Laerm;53658;50.742;10.864;2024-03-08T10:08:39;38.78;34.69;42.09;;
66747;Laerm;53658;50.742;10.864;2024-03-08T10:11:05;38.90;34.69;45.30;;
66747;Laerm;53658;50.742;10.864;2024-03-08T10:13:33;38.73;35.04;41.61;;
66747;Laerm;53658;50.742;10.864;2024-03-08T10:16:00;38.64;35.04;41.22;;
66747;Laerm;53658;50.742;10.864;2024-03-08T10:18:26;38.71;35.36;41.06;;
66747;Laerm;53658;50.742;10.864;2024-03-08T10:21:06;38.69;35.04;41.46;;
66747;Laerm;53658;50.742;10.864;2024-03-08T10:23:33;38.63;34.69;40.89;;
66747;Laerm;53658;50.742;10.864;2024-03-08T10:26:15;38.63;34.69;41.22;;
66747;Laerm;53658;50.742;10.864;2024-03-08T10:28:49;38.63;34.69;41.38;;
66747;Laerm;53658;50.742;10.864;2024-03-08T10:31:15;38.61;35.04;41.14;;
66747;Laerm;53658;50.742;10.864;2024-03-08T10:33:42;38.56;34.69;41.14;;
66747;Laerm;53658;50.742;10.864;2024-03-08T10:36:08;38.86;34.31;43.49;;
66747;Laerm;53658;50.742;10.864;2024-03-08T10:38:39;38.61;34.69;41.14;;
66747;Laerm;53658;50.742;10.864;2024-03-08T10:41:07;38.63;33.90;41.38;;
66747;Laerm;53658;50.742;10.864;2024-03-08T10:48:57;38.64;35.04;41.75;;
66747;Laerm;53658;50.742;10.864;2024-03-08T10:51:30;38.77;35.04;43.04;;
66747;Laerm;53658;50.742;10.864;2024-03-08T10:53:59;38.62;32.35;41.53;;
66747;Laerm;53658;50.742;10.864;2024-03-08T10:56:25;38.72;34.69;42.47;;
66747;Laerm;53658;50.742;10.864;2024-03-08T10:58:54;38.58;35.04;41.14;;
66747;Laerm;53658;50.742;10.864;2024-03-08T11:01:21;38.58;35.36;42.09;;
66747;Laerm;53658;50.742;10.864;2024-03-08T11:03:48;38.53;35.04;41.53;;
66747;Laerm;53658;50.742;10.864;2024-03-08T11:08:49;38.57;34.31;41.75;;
66747;Laerm;53658;50.742;10.864;2024-03-08T11:11:27;38.44;34.31;41.38;;
66747;Laerm;53658;50.742;10.864;2024-03-08T11:13:56;38.44;34.31;41.06;;
66747;Laerm;53658;50.742;10.864;2024-03-08T11:21:37;38.35;34.31;41.75;;
66747;Laerm;53658;50.742;10.864;2024-03-08T11:24:11;38.35;34.69;41.06;;
66747;Laerm;53658;50.742;10.864;2024-03-08T11:26:37;38.49;34.31;41.68;;
66747;Laerm;53658;50.742;10.864;2024-03-08T11:32:11;38.31;34.31;40.89;;
66747;Laerm;53658;50.742;10.864;2024-03-08T11:34:47;38.35;34.31;41.61;;
66747;Laerm;53658;50.742;10.864;2024-03-08T11:37:15;38.41;33.44;41.68;;
66747;Laerm;53658;50.742;10.864;2024-03-08T11:39:48;38.33;33.90;41.14;;
66747;Laerm;53658;50.742;10.864;2024-03-08T11:42:18;38.26;34.31;41.46;;
66747;Laerm;53658;50.742;10.864;2024-03-08T11:44:46;38.29;34.31;40.98;;
66747;Laerm;53658;50.742;10.864;2024-03-08T11:47:14;38.24;32.93;42.69;;
66747;Laerm;53658;50.742;10.864;2024-03-08T11:49:40;38.32;34.69;41.41;;
66747;Laerm;53658;50.742;10.864;2024-03-08T11:52:16;38.27;33.90;41.38;;
66747;Laerm;53658;50.742;10.864;2024-03-08T11:54:48;38.70;34.31;43.86;;
66747;Laerm;53658;50.742;10.864;2024-03-08T11:57:21;38.41;33.90;43.68;;
66747;Laerm;53658;50.742;10.864;2024-03-08T11:59:55;38.18;33.90;41.06;;
66747;Laerm;53658;50.742;10.864;2024-03-08T12:02:22;38.27;33.90;44.03;;
66747;Laerm;53658;50.742;10.864;2024-03-08T12:04:59;38.28;33.44;42.65;;
66747;Laerm;53658;50.742;10.864;2024-03-08T12:07:26;38.49;33.90;45.75;;
66747;Laerm;53658;50.742;10.864;2024-03-08T12:12:47;38.26;32.93;42.03;;
66747;Laerm;53658;50.742;10.864;2024-03-08T12:15:15;38.25;33.90;41.61;;
66747;Laerm;53658;50.742;10.864;2024-03-08T12:17:41;38.22;33.90;42.41;;
66747;Laerm;53658;50.742;10.864;2024-03-08T12:22:46;38.55;33.44;43.94;;
66747;Laerm;53658;50.742;10.864;2024-03-08T12:25:12;38.60;32.35;44.27;;
66747;Laerm;53658;50.742;10.864;2024-03-08T12:27:39;38.34;33.44;43.54;;
66747;Laerm;53658;50.742;10.864;2024-03-08T12:32:53;38.85;32.35;43.54;;
66747;Laerm;53658;50.742;10.864;2024-03-08T12:35:30;38.28;33.44;42.53;;
66747;Laerm;53658;50.742;10.864;2024-03-08T12:37:59;38.08;33.44;40.98;;
66747;Laerm;53658;50.742;10.864;2024-03-08T12:40:26;38.11;33.44;41.06;;
66747;Laerm;53658;50.742;10.864;2024-03-08T12:42:55;38.12;33.44;40.98;;
66747;Laerm;53658;50.742;10.864;2024-03-08T12:45:22;38.34;33.90;51.26;;
66747;Laerm;53658;50.742;10.864;2024-03-08T12:47:53;38.52;33.44;45.57;;
66747;Laerm;53658;50.742;10.864;2024-03-08T12:50:21;38.13;33.90;42.59;;
66747;Laerm;53658;50.742;10.864;2024-03-08T12:52:48;38.04;34.31;40.80;;
66747;Laerm;53658;50.742;10.864;2024-03-08T12:55:15;38.02;32.93;40.89;;
66747;Laerm;53658;50.742;10.864;2024-03-08T12:57:42;38.12;32.35;42.65;;
66747;Laerm;53658;50.742;10.864;2024-03-08T13:00:09;38.21;31.68;42.98;;
66747;Laerm;53658;50.742;10.864;2024-03-08T13:02:45;38.27;32.93;43.04;;
66747;Laerm;53658;50.742;10.864;2024-03-08T13:05:12;38.18;33.44;43.29;;
66747;Laerm;53658;50.742;10.864;2024-03-08T13:07:41;38.26;33.44;43.58;;
66747;Laerm;53658;50.742;10.864;2024-03-08T13:10:15;38.09;32.93;42.41;;
66747;Laerm;53658;50.742;10.864;2024-03-08T13:12:44;38.47;33.90;45.11;;
66747;Laerm;53658;50.742;10.864;2024-03-08T13:15:11;38.35;32.35;43.49;;
66747;Laerm;53658;50.742;10.864;2024-03-08T13:17:41;38.65;33.90;44.27;;
66747;Laerm;53658;50.742;10.864;2024-03-08T13:20:08;38.59;33.44;44.31;;
66747;Laerm;53658;50.742;10.864;2024-03-08T13:22:35;38.19;31.68;43.29;;
66747;Laerm;53658;50.742;10.864;2024-03-08T13:25:02;37.89;32.93;40.63;;
66747;Laerm;53658;50.742;10.864;2024-03-08T13:27:28;37.96;33.44;41.06;;
66747;Laerm;53658;50.742;10.864;2024-03-08T13:29:54;37.96;32.93;40.62;;
66747;Laerm;53658;50.742;10.864;2024-03-08T13:32:20;37.91;33.90;40.89;;
66747;Laerm;53658;50.742;10.864;2024-03-08T13:34:47;38.03;32.35;41.06;;
66747;Laerm;53658;50.742;10.864;2024-03-08T13:37:13;38.15;32.93;42.47;;
66747;Laerm;53658;50.742;10.864;2024-03-08T13:39:42;37.86;32.35;41.38;;
66747;Laerm;53658;50.742;10.864;2024-03-08T13:42:14;37.89;33.44;40.89;;
66747;Laerm;53658;50.742;10.864;2024-03-08T13:44:48;37.86;32.35;42.16;;
66747;Laerm;53658;50.742;10.864;2024-03-08T13:47:16;37.84;32.93;40.62;;
66747;Laerm;53658;50.742;10.864;2024-03-08T13:49:43;37.96;32.35;43.63;;
66747;Laerm;53658;50.742;10.864;2024-03-08T13:52:10;37.83;32.93;41.06;;
66747;Laerm;53658;50.742;10.864;2024-03-08T13:54:38;37.81;32.93;40.71;;
66747;Laerm;53658;50.742;10.864;2024-03-08T13:57:04;37.82;32.93;40.43;;